Time;durP1;ratioP1;P1;durP2;ratioP2;P2;SDS_P1;SDS_P2;PMS_P1;PMS_P2;Temp;Humidity;BMP_temperature;BMP_pressure;BME280_temperature;BME280_humidity;BME280_pressure;Samples;Min_cycle;Max_cycle;Signal;HPM_P1;HPM_P2
2022/01/14 00:02:11;;;;;;;5.47;3.88;;;;;;;20.69;26.42;101195.47;5129876;28;20131;-64
2022/01/14 00:04:37;;;;;;;4.35;3.33;;;;;;;20.68;26.51;101196.63;5129914;28;20031;-64
2022/01/14 00:07:03;;;;;;;4.90;3.60;;;;;;;20.67;26.52;101198.59;5111133;28;20043;-64
2022/01/14 00:09:31;;;;;;;5.65;3.80;;;;;;;20.67;26.49;101201.38;5129472;28;20051;-64
2022/01/14 00:11:58;;;;;;;6.00;3.90;;;;;;;20.65;26.65;101188.97;5129662;28;20039;-64
2022/01/14 00:17:06;;;;;;;5.25;3.88;;;;;;;20.64;26.57;101193.69;5132105;28;20058;-64
2022/01/14 00:19:31;;;;;;;6.07;4.00;;;;;;;20.65;26.80;101195.34;5131605;28;20130;-64
2022/01/14 00:21:58;;;;;;;5.30;4.20;;;;;;;20.65;26.57;101191.75;5131799;28;20474;-65
2022/01/14 00:24:29;;;;;;;5.22;4.13;;;;;;;20.64;26.43;101190.91;5129766;28;20407;-64
2022/01/14 00:32:58;;;;;;;5.57;4.15;;;;;;;20.61;26.45;101181.25;5132633;28;20119;-56
2022/01/14 00:35:15;;;;;;;5.68;4.32;;;;;;;20.62;26.47;101193.19;5128785;28;20043;-56
2022/01/14 00:37:41;;;;;;;5.22;3.65;;;;;;;20.60;26.43;101187.16;5132914;28;20050;-56
2022/01/14 00:40:07;;;;;;;5.55;4.20;;;;;;;20.60;26.38;101189.94;5132680;28;20039;-56
2022/01/14 00:42:32;;;;;;;5.75;4.15;;;;;;;20.58;26.46;101189.47;5132745;28;20039;-56
2022/01/14 00:44:58;;;;;;;5.15;3.83;;;;;;;20.59;26.58;101185.53;5132890;28;20448;-56
2022/01/14 00:47:23;;;;;;;5.75;3.95;;;;;;;20.59;26.48;101188.31;5132465;28;20131;-56
2022/01/14 00:49:49;;;;;;;5.60;3.92;;;;;;;20.67;26.50;101184.69;5132642;28;20042;-56
2022/01/14 00:52:14;;;;;;;5.20;4.05;;;;;;;21.23;25.63;101182.69;5132745;28;20045;-56
2022/01/14 00:54:39;;;;;;;5.13;3.80;;;;;;;22.10;24.52;101180.22;5132703;28;20133;-57
2022/01/14 00:59:33;;;;;;;4.80;3.65;;;;;;;22.63;24.19;101184.13;5132585;28;20050;-58
2022/01/14 01:02:00;;;;;;;5.30;3.72;;;;;;;22.37;24.58;101178.81;5132314;28;20043;-57
2022/01/14 01:04:33;;;;;;;4.85;3.80;;;;;;;22.10;24.88;101174.63;5132408;28;20051;-58
2022/01/14 01:07:02;;;;;;;4.50;3.50;;;;;;;21.91;24.96;101183.44;5132249;28;20047;-58
2022/01/14 01:09:29;;;;;;;5.13;3.58;;;;;;;21.73;24.97;101176.38;5132283;28;20076;-58
2022/01/14 01:12:25;;;;;;;5.32;3.60;;;;;;;21.59;25.42;101178.59;5132175;28;20047;-57
2022/01/14 01:15:03;;;;;;;5.25;3.67;;;;;;;21.46;25.45;101186.03;5132394;28;20059;-58
2022/01/14 01:17:28;;;;;;;6.07;3.90;;;;;;;21.34;25.37;101195.09;5115586;28;20480;-58
2022/01/14 01:19:54;;;;;;;5.90;4.15;;;;;;;21.26;25.49;101190.38;5132143;28;20507;-57
2022/01/14 01:22:19;;;;;;;4.85;3.67;;;;;;;21.18;25.73;101194.00;5132140;28;20427;-58
2022/01/14 01:24:45;;;;;;;4.90;3.67;;;;;;;21.12;25.81;101187.00;5132105;28;20039;-58
2022/01/14 01:27:10;;;;;;;4.75;3.97;;;;;;;21.07;25.76;101187.16;5132005;28;20039;-58
2022/01/14 01:32:03;;;;;;;5.65;4.03;;;;;;;20.98;25.97;101203.09;5132101;28;20071;-65
2022/01/14 01:34:28;;;;;;;5.18;3.63;;;;;;;20.95;25.72;101212.09;5131859;28;20051;-65
2022/01/14 01:36:57;;;;;;;5.70;4.22;;;;;;;20.91;25.82;101208.34;5131924;28;20395;-57
2022/01/14 01:39:28;;;;;;;5.65;4.03;;;;;;;20.88;25.70;101209.84;5131924;28;20040;-58
2022/01/14 01:42:00;;;;;;;5.15;3.83;;;;;;;20.84;26.01;101203.28;5131005;27;20047;-57
2022/01/14 01:44:27;;;;;;;5.35;3.97;;;;;;;20.80;25.95;101203.16;5131806;28;20126;-57
2022/01/14 01:46:54;;;;;;;5.40;3.95;;;;;;;20.78;26.10;101197.06;5131564;28;20529;-57
2022/01/14 01:49:25;;;;;;;5.90;4.28;;;;;;;20.73;26.10;101200.06;5131824;28;20043;-57
2022/01/14 01:51:52;;;;;;;5.05;3.78;;;;;;;20.74;25.98;101204.47;5131580;28;20046;-57
2022/01/14 01:54:19;;;;;;;5.70;4.07;;;;;;;20.73;26.16;101211.19;5131607;28;20155;-57
2022/01/14 01:56:45;;;;;;;4.90;3.95;;;;;;;20.70;25.94;101209.03;5131832;28;20146;-64
2022/01/14 01:59:11;;;;;;;5.07;3.95;;;;;;;20.70;25.98;101208.22;5131695;28;20169;-64
2022/01/14 02:01:41;;;;;;;4.70;3.53;;;;;;;20.68;26.16;101211.34;5131445;28;20050;-64
2022/01/14 02:04:07;;;;;;;5.68;4.07;;;;;;;20.68;26.10;101213.31;5131479;28;20468;-64
2022/01/14 02:06:34;;;;;;;5.25;3.95;;;;;;;20.64;26.10;101210.34;5131297;28;20043;-57
2022/01/14 02:09:00;;;;;;;5.55;4.00;;;;;;;20.64;26.03;101207.56;5131305;28;20391;-57
2022/01/14 02:11:25;;;;;;;5.15;3.83;;;;;;;20.65;25.96;101211.22;5131311;28;20050;-57
2022/01/14 02:13:54;;;;;;;4.80;3.92;;;;;;;20.63;26.09;101210.69;5131318;28;20039;-64
2022/01/14 02:19:16;;;;;;;5.10;3.63;;;;;;;20.61;26.12;101205.47;5131293;28;20050;-64
2022/01/14 02:25:14;;;;;;;5.25;3.95;;;;;;;20.59;25.99;101202.22;5131230;28;20062;-64
2022/01/14 02:27:18;;;;;;;4.55;3.55;;;;;;;20.57;26.17;101208.09;5122510;28;20035;-64
2022/01/14 02:29:44;;;;;;;5.57;3.70;;;;;;;20.56;26.13;101205.63;5130963;28;20079;-64
2022/01/14 02:32:09;;;;;;;4.88;3.70;;;;;;;20.55;26.10;101213.16;5130983;28;20126;-64
2022/01/14 02:34:36;;;;;;;4.90;3.63;;;;;;;20.55;26.21;101209.56;5130922;28;20066;-64
2022/01/14 02:37:02;;;;;;;4.93;3.67;;;;;;;20.55;26.28;101206.78;5130904;28;20058;-64
2022/01/14 02:39:28;;;;;;;4.95;3.70;;;;;;;20.55;26.19;101201.22;5114727;28;20094;-64
2022/01/14 02:41:53;;;;;;;4.65;3.45;;;;;;;20.52;26.25;101194.38;5091771;28;20054;-64
2022/01/14 02:44:26;;;;;;;4.70;3.65;;;;;;;20.53;26.22;101190.44;5109816;28;20499;-64
2022/01/14 02:46:56;;;;;;;5.32;3.78;;;;;;;20.55;26.16;101198.44;5110103;28;20047;-64
2022/01/14 02:49:28;;;;;;;6.07;4.13;;;;;;;20.91;25.47;101195.25;5110025;28;20096;-64
2022/01/14 02:51:54;;;;;;;5.40;4.13;;;;;;;21.87;24.57;101199.22;5110188;28;20407;-64
2022/01/14 02:54:23;;;;;;;5.80;4.05;;;;;;;22.76;23.42;101190.56;5109631;28;20055;-64
2022/01/14 02:56:52;;;;;;;4.93;3.60;;;;;;;22.69;23.97;101188.31;5110066;28;20051;-64
2022/01/14 02:59:18;;;;;;;4.90;3.40;;;;;;;22.42;24.06;101192.53;5109946;28;20074;-64
2022/01/14 03:01:46;;;;;;;4.60;3.28;;;;;;;22.16;24.50;101186.41;5109910;28;20142;-57
2022/01/14 03:04:14;;;;;;;5.93;3.65;;;;;;;21.94;24.49;101184.75;5109725;28;20043;-64
2022/01/14 03:06:41;;;;;;;4.80;3.60;;;;;;;21.72;24.83;101171.97;5109737;28;20040;-64
2022/01/14 03:09:06;;;;;;;4.88;3.47;;;;;;;21.58;24.78;101168.63;5109826;28;20047;-64
2022/01/14 03:11:41;;;;;;;4.82;3.75;;;;;;;21.45;25.08;101175.25;5109829;28;20043;-64
2022/01/14 03:14:09;;;;;;;4.72;3.40;;;;;;;21.34;25.08;101172.00;5107202;28;20499;-64
2022/01/14 03:16:40;;;;;;;5.45;3.55;;;;;;;21.25;25.30;101166.47;5109793;28;20043;-65
2022/01/14 03:19:11;;;;;;;5.25;3.60;;;;;;;21.13;25.34;101158.00;5107010;28;20104;-65
2022/01/14 03:21:40;;;;;;;4.68;3.50;;;;;;;21.09;25.24;101157.88;5109721;28;20487;-65
2022/01/14 03:26:42;;;;;;;4.70;3.33;;;;;;;20.96;25.36;101152.53;5110130;28;20633;-65
2022/01/14 03:29:08;;;;;;;5.63;4.18;;;;;;;20.92;25.53;101146.00;5109888;28;20048;-65
2022/01/14 03:31:33;;;;;;;4.75;3.53;;;;;;;20.89;25.54;101144.72;5109728;28;20048;-64
2022/01/14 03:33:59;;;;;;;4.13;3.28;;;;;;;20.85;25.65;101150.09;5109830;28;20430;-65
2022/01/14 03:36:25;;;;;;;4.70;3.40;;;;;;;20.79;25.59;101134.78;5109753;28;20054;-65
2022/01/14 03:38:50;;;;;;;4.63;3.50;;;;;;;20.79;25.65;101131.19;5109422;28;20042;-65
2022/01/14 03:41:16;;;;;;;5.03;3.85;;;;;;;20.75;25.84;101136.56;5109344;28;20047;-65
2022/01/14 03:43:42;;;;;;;4.80;3.85;;;;;;;20.73;25.69;101141.66;5109384;28;20040;-65
2022/01/14 03:46:07;;;;;;;5.10;3.78;;;;;;;20.71;25.72;101140.34;5109276;28;20120;-65
2022/01/14 03:48:33;;;;;;;4.88;3.60;;;;;;;20.69;25.73;101137.09;5109175;28;20075;-64
2022/01/14 03:50:59;;;;;;;5.05;3.67;;;;;;;20.68;25.88;101141.84;5109236;28;20047;-65
2022/01/14 03:53:25;;;;;;;4.88;3.35;;;;;;;20.67;25.68;101142.16;5109382;28;20419;-65
2022/01/14 03:55:50;;;;;;;4.93;3.55;;;;;;;20.64;25.67;101138.06;5109136;28;20495;-65
2022/01/14 03:58:15;;;;;;;5.45;3.70;;;;;;;20.63;25.82;101132.84;5109213;28;20043;-65
2022/01/14 04:00:41;;;;;;;4.50;3.22;;;;;;;20.61;25.93;101138.75;5109211;28;20066;-65
2022/01/14 04:03:07;;;;;;;4.60;3.75;;;;;;;20.60;25.87;101143.50;5109190;28;20096;-65
2022/01/14 04:05:33;;;;;;;4.88;3.50;;;;;;;20.57;25.96;101144.16;5107919;28;20113;-64
2022/01/14 04:07:59;;;;;;;5.18;3.83;;;;;;;20.59;25.77;101138.28;5109165;28;20047;-64
2022/01/14 04:10:26;;;;;;;5.28;3.60;;;;;;;20.57;25.96;101140.53;5108865;28;20093;-65
2022/01/14 04:13:12;;;;;;;5.43;3.92;;;;;;;20.56;25.84;101139.72;5108611;28;20131;-64
2022/01/14 04:15:37;;;;;;;5.35;3.75;;;;;;;20.55;25.96;101138.09;5109044;28;20036;-65
2022/01/14 04:18:16;;;;;;;5.45;3.65;;;;;;;20.53;25.92;101136.81;5108931;28;20043;-65
2022/01/14 04:20:44;;;;;;;4.53;3.63;;;;;;;20.53;25.97;101139.59;5108900;28;20109;-65
2022/01/14 04:23:13;;;;;;;5.00;3.90;;;;;;;20.52;25.89;101135.19;5108813;28;20058;-64
2022/01/14 04:25:39;;;;;;;4.88;3.50;;;;;;;20.49;25.97;101133.03;5108766;28;20196;-64
2022/01/14 04:28:05;;;;;;;4.60;3.67;;;;;;;20.49;26.02;101128.31;5108527;28;20040;-65
2022/01/14 04:30:32;;;;;;;5.18;3.60;;;;;;;20.48;25.89;101128.63;5108820;28;20457;-58
2022/01/14 04:32:58;;;;;;;4.65;3.58;;;;;;;20.48;25.88;101123.91;5108728;28;20067;-58
2022/01/14 04:35:24;;;;;;;5.30;3.55;;;;;;;20.47;25.97;101121.44;5108736;28;20076;-58
2022/01/14 04:37:50;;;;;;;4.70;3.42;;;;;;;20.47;26.02;101121.44;5108669;28;20046;-57
2022/01/14 04:40:16;;;;;;;5.15;3.42;;;;;;;20.47;26.05;101118.69;5108702;28;20032;-57
2022/01/14 04:42:43;;;;;;;5.65;3.83;;;;;;;20.45;25.86;101115.41;5108466;28;20047;-58
2022/01/14 04:45:10;;;;;;;5.75;4.13;;;;;;;20.45;25.93;101110.66;5108491;28;20039;-58
2022/01/14 04:47:45;;;;;;;5.53;4.07;;;;;;;20.79;25.44;101103.38;5108289;28;20096;-57
2022/01/14 04:50:15;;;;;;;5.40;4.00;;;;;;;21.86;24.08;101102.88;5108465;28;20143;-58
2022/01/14 04:52:43;;;;;;;4.78;3.70;;;;;;;22.72;23.37;101092.81;5108493;28;20044;-58
2022/01/14 04:55:10;;;;;;;5.10;3.70;;;;;;;22.57;23.80;101101.00;5108443;28;20056;-57
2022/01/14 04:57:37;;;;;;;4.57;3.50;;;;;;;22.28;24.16;101102.00;5108239;28;20082;-57
2022/01/14 05:00:11;;;;;;;4.68;3.47;;;;;;;22.02;24.21;101099.44;5108396;28;20039;-58
2022/01/14 05:02:37;;;;;;;4.85;3.75;;;;;;;21.80;24.16;101098.66;5108224;28;20131;-58
2022/01/14 05:05:04;;;;;;;4.50;3.50;;;;;;;21.62;24.75;101108.28;5108267;28;20047;-57
2022/01/14 05:07:29;;;;;;;4.72;3.63;;;;;;;21.48;24.73;101113.31;5108598;28;20051;-57
2022/01/14 05:10:59;;;;;;;5.03;3.75;;;;;;;21.35;25.04;101106.84;5108537;28;20039;-57
2022/01/14 05:12:44;;;;;;;5.10;3.83;;;;;;;21.23;25.17;101098.41;5099586;28;20047;-57
2022/01/14 05:15:13;;;;;;;5.47;3.85;;;;;;;21.13;25.08;101096.78;5108319;28;20039;-57
2022/01/14 05:17:38;;;;;;;5.82;3.90;;;;;;;21.06;25.25;101107.63;5110448;28;20042;-58
2022/01/14 05:20:05;;;;;;;4.70;3.53;;;;;;;20.99;25.28;101099.00;5111748;28;20427;-58
2022/01/14 05:22:30;;;;;;;4.85;3.78;;;;;;;20.93;25.56;101098.38;5111581;28;20043;-57
2022/01/14 05:24:56;;;;;;;5.05;3.58;;;;;;;20.87;25.37;101100.53;5111538;28;20071;-57
2022/01/14 05:27:21;;;;;;;4.93;3.80;;;;;;;20.84;25.62;101100.38;5111300;28;20118;-56
2022/01/14 05:29:47;;;;;;;5.00;3.65;;;;;;;20.80;25.61;101103.03;5111896;28;20040;-58
2022/01/14 05:32:15;;;;;;;4.78;3.50;;;;;;;20.75;25.45;101108.75;5093988;28;20055;-56
2022/01/14 05:34:43;;;;;;;5.28;3.75;;;;;;;20.72;25.56;101103.88;5097606;28;20130;-57
2022/01/14 05:37:09;;;;;;;4.95;3.60;;;;;;;20.71;25.72;101109.75;5091640;28;20048;-56
2022/01/14 05:39:36;;;;;;;4.72;3.58;;;;;;;20.67;25.75;101109.63;5091379;28;20397;-57
2022/01/14 05:42:03;;;;;;;5.22;3.60;;;;;;;20.65;25.73;101114.72;5091166;28;20135;-57
2022/01/14 05:44:29;;;;;;;4.75;3.45;;;;;;;20.62;25.63;101101.44;5091121;28;20051;-57
2022/01/14 05:46:56;;;;;;;4.78;3.67;;;;;;;20.60;25.78;101104.56;5090993;28;20044;-57
2022/01/14 05:49:22;;;;;;;4.88;3.38;;;;;;;20.60;25.70;101100.97;5091087;28;20474;-57
2022/01/14 05:51:48;;;;;;;4.30;3.17;;;;;;;20.58;25.78;101106.06;5091202;28;20520;-57
2022/01/14 05:54:14;;;;;;;4.65;3.25;;;;;;;20.57;25.87;101107.19;5091245;28;20044;-57
2022/01/14 05:56:41;;;;;;;5.03;3.75;;;;;;;20.57;25.77;101107.19;5091149;28;20040;-57
2022/01/14 05:59:06;;;;;;;4.25;3.05;;;;;;;20.56;25.77;101098.03;5090911;28;20051;-57
2022/01/14 06:01:31;;;;;;;5.30;3.92;;;;;;;20.57;25.71;101101.63;5071641;28;20052;-57
2022/01/14 06:04:01;;;;;;;4.65;3.67;;;;;;;20.55;25.70;101103.94;5090964;28;20785;-58
2022/01/14 06:06:27;;;;;;;4.55;3.40;;;;;;;20.56;25.92;101105.56;5090446;28;20068;-57
2022/01/14 06:08:53;;;;;;;4.57;3.38;;;;;;;20.55;25.71;101095.59;5090540;28;20132;-57
2022/01/14 06:11:19;;;;;;;4.40;3.30;;;;;;;20.52;25.72;101099.84;5090345;28;20524;-57
2022/01/14 06:13:46;;;;;;;4.95;3.60;;;;;;;20.55;25.87;101109.50;5090408;28;20036;-57
2022/01/14 06:16:11;;;;;;;4.15;3.30;;;;;;;20.54;25.73;101105.91;5090463;28;20097;-57
2022/01/14 06:18:37;;;;;;;4.93;3.40;;;;;;;20.53;25.93;101109.81;5090317;28;20072;-57
2022/01/14 06:21:03;;;;;;;5.43;3.67;;;;;;;20.54;25.77;101113.41;5090063;28;20044;-57
2022/01/14 06:23:28;;;;;;;5.00;3.50;;;;;;;20.55;25.79;101110.31;5090229;28;20128;-57
2022/01/14 06:25:54;;;;;;;4.38;3.30;;;;;;;20.53;25.73;101107.03;5090320;28;20101;-57
2022/01/14 06:28:19;;;;;;;4.80;3.70;;;;;;;20.54;25.98;101116.19;5089425;28;20048;-58
2022/01/14 06:30:45;;;;;;;4.35;3.40;;;;;;;20.53;25.99;101115.38;5090420;28;20055;-57
2022/01/14 06:33:10;;;;;;;6.00;3.08;;;;;;;20.55;25.84;101112.28;5090226;28;20113;-63
2022/01/14 06:35:36;;;;;;;9.45;3.47;;;;;;;20.53;26.03;101118.16;5090148;28;20055;-63
2022/01/14 06:38:02;;;;;;;4.78;3.60;;;;;;;20.56;26.07;101113.91;5090031;28;20101;-63
2022/01/14 06:40:28;;;;;;;4.97;3.20;;;;;;;20.56;26.02;101105.56;5090103;28;20481;-63
2022/01/14 06:42:54;;;;;;;5.85;3.45;;;;;;;20.54;25.95;101099.53;5089848;28;20060;-63
2022/01/14 06:45:20;;;;;;;5.70;3.30;;;;;;;20.56;26.13;101114.72;5090278;28;20395;-64
2022/01/14 06:47:46;;;;;;;5.00;3.13;;;;;;;20.56;26.06;101111.13;5090038;28;20036;-63
2022/01/14 06:50:11;;;;;;;4.43;3.17;;;;;;;20.57;26.10;101109.97;5090450;28;20121;-63
2022/01/14 06:52:36;;;;;;;4.70;3.40;;;;;;;20.55;25.96;101104.75;5090124;28;20028;-63
2022/01/14 06:55:02;;;;;;;4.30;3.13;;;;;;;20.54;26.06;101102.31;5090176;28;20408;-63
2022/01/14 06:57:28;;;;;;;5.10;3.35;;;;;;;20.52;26.03;101099.03;5090128;28;20040;-63
2022/01/14 06:59:53;;;;;;;4.20;3.25;;;;;;;20.55;26.05;101104.75;5090028;28;20040;-63
2022/01/14 07:02:19;;;;;;;5.47;3.55;;;;;;;20.54;26.11;101105.06;5089882;28;20560;-63
2022/01/14 07:04:44;;;;;;;4.43;3.38;;;;;;;20.55;25.92;101106.72;5089754;28;20051;-63
2022/01/14 07:07:09;;;;;;;4.80;3.50;;;;;;;20.54;25.84;101097.56;5089507;28;20048;-64
2022/01/14 07:09:35;;;;;;;4.47;3.30;;;;;;;20.54;25.86;101100.34;5089999;28;20040;-63
2022/01/14 07:12:02;;;;;;;4.88;3.38;;;;;;;20.54;25.77;101096.75;5089721;28;20499;-63
2022/01/14 07:14:29;;;;;;;6.70;3.75;;;;;;;20.53;25.95;101095.13;5089740;28;20052;-63
2022/01/14 07:16:56;;;;;;;5.43;3.72;;;;;;;20.59;25.85;101091.81;5089796;28;20127;-64
2022/01/14 07:19:22;;;;;;;5.22;3.97;;;;;;;21.12;24.71;101092.38;5089835;28;20054;-57
2022/01/14 07:21:48;;;;;;;4.95;3.70;;;;;;;22.12;23.80;101094.28;5089637;28;20078;-57
2022/01/14 07:24:13;;;;;;;6.22;4.07;;;;;;;22.86;23.33;101086.94;5089521;28;20059;-58
2022/01/14 07:26:42;;;;;;;4.63;3.42;;;;;;;22.65;23.64;101083.38;5089454;28;20470;-58
2022/01/14 07:29:08;;;;;;;4.43;3.42;;;;;;;22.37;23.76;101086.00;5089489;28;20044;-58
2022/01/14 07:31:34;;;;;;;4.45;3.30;;;;;;;22.10;24.22;101082.66;5089394;28;20143;-63
2022/01/14 07:33:59;;;;;;;4.60;3.28;;;;;;;21.89;24.43;101085.47;5070619;28;20060;-64
2022/01/14 07:36:24;;;;;;;4.60;3.35;;;;;;;21.72;24.61;101085.63;5089493;28;20052;-64
2022/01/14 07:38:50;;;;;;;4.78;3.40;;;;;;;21.58;24.56;101096.22;5089512;28;20039;-57
2022/01/14 07:41:16;;;;;;;4.60;3.45;;;;;;;21.45;24.51;101091.72;5089083;28;20052;-58
2022/01/14 07:43:46;;;;;;;5.00;3.40;;;;;;;21.34;24.68;101094.88;5089307;28;20412;-58
2022/01/14 07:46:12;;;;;;;5.03;3.60;;;;;;;21.26;24.98;101092.13;5088650;28;20050;-57
2022/01/14 07:48:38;;;;;;;4.72;3.30;;;;;;;21.19;24.97;101094.63;5087790;28;20036;-56
2022/01/14 07:51:03;;;;;;;5.15;3.67;;;;;;;21.11;25.06;101101.88;5086533;28;20139;-59
2022/01/14 07:53:28;;;;;;;6.28;3.40;;;;;;;21.03;25.18;101102.75;5078962;28;20040;-58
2022/01/14 07:55:54;;;;;;;5.15;3.55;;;;;;;20.98;25.42;101111.28;5084340;28;20046;-57
2022/01/14 07:58:21;;;;;;;4.38;3.30;;;;;;;20.95;25.30;101111.97;5086419;28;20403;-57
2022/01/14 08:00:46;;;;;;;4.90;3.65;;;;;;;20.93;25.36;101108.69;5087509;28;20055;-58
2022/01/14 08:03:12;;;;;;;4.90;3.60;;;;;;;20.90;25.47;101104.63;5087355;28;20408;-63
2022/01/14 08:05:37;;;;;;;5.05;3.47;;;;;;;20.88;25.70;101110.50;5073065;28;20058;-62
2022/01/14 08:08:04;;;;;;;4.68;3.53;;;;;;;20.84;25.47;101109.53;5074831;28;20037;-62
2022/01/14 08:10:33;;;;;;;4.80;3.42;;;;;;;20.81;25.81;101113.00;5086562;28;20522;-64
2022/01/14 08:12:58;;;;;;;5.07;3.80;;;;;;;20.80;25.84;101105.81;5073361;28;20067;-61
2022/01/14 08:15:24;;;;;;;5.28;3.55;;;;;;;20.79;25.94;101112.53;5082751;28;20052;-60
2022/01/14 08:17:49;;;;;;;5.07;3.63;;;;;;;20.78;26.11;101107.28;5073156;28;21060;-59
2022/01/14 08:20:15;;;;;;;5.00;3.65;;;;;;;20.77;26.18;101106.47;5074550;28;20044;-62
2022/01/14 08:22:40;;;;;;;4.95;3.83;;;;;;;20.77;26.30;101114.81;5078426;28;20044;-66
2022/01/14 08:25:06;;;;;;;5.30;3.60;;;;;;;20.77;26.13;101111.22;5079675;28;20052;-61
2022/01/14 08:27:32;;;;;;;5.70;4.20;;;;;;;20.79;26.33;101108.94;5077046;28;20162;-61
2022/01/14 08:29:57;;;;;;;5.93;3.70;;;;;;;20.80;26.29;101100.25;5083923;28;20051;-59
2022/01/14 08:32:23;;;;;;;5.10;4.07;;;;;;;20.80;26.30;101105.81;5080852;28;20051;-57
2022/01/14 08:34:50;;;;;;;6.10;3.95;;;;;;;20.81;26.68;101101.06;5083202;28;20041;-64
2022/01/14 08:37:16;;;;;;;6.47;3.88;;;;;;;20.82;26.69;101105.47;5073413;28;20773;-64
2022/01/14 08:39:41;;;;;;;5.22;3.92;;;;;;;20.82;26.68;101113.81;5092451;28;20118;-64
2022/01/14 08:42:10;;;;;;;8.85;4.53;;;;;;;20.81;26.60;101109.41;5065137;28;20064;-62
2022/01/14 08:44:38;;;;;;;7.28;4.65;;;;;;;20.79;26.48;101106.16;5068917;28;20036;-61
2022/01/14 08:47:09;;;;;;;12.05;4.10;;;;;;;20.80;26.55;101107.78;5080919;28;20043;-61
2022/01/14 08:49:41;;;;;;;6.63;4.80;;;;;;;20.78;26.83;101104.50;5070086;28;20048;-63
2022/01/14 08:52:09;;;;;;;7.95;4.85;;;;;;;20.80;26.81;101107.78;5076703;28;20048;-63
2022/01/14 08:54:35;;;;;;;6.05;4.13;;;;;;;20.79;26.77;101109.75;5077571;28;20076;-63
2022/01/14 08:57:03;;;;;;;6.45;4.53;;;;;;;20.80;26.70;101107.78;5078856;28;20039;-62
2022/01/14 08:59:32;;;;;;;6.90;4.75;;;;;;;20.79;26.68;101109.75;5076193;28;20059;-63
2022/01/14 09:01:58;;;;;;;6.57;4.68;;;;;;;20.79;26.76;101106.16;5072001;28;20538;-68
2022/01/14 09:04:24;;;;;;;7.15;4.20;;;;;;;20.75;26.98;101108.75;5069740;28;20434;-63
2022/01/14 09:06:49;;;;;;;6.43;4.43;;;;;;;20.77;26.75;101105.66;5079250;28;20036;-64
2022/01/14 09:09:15;;;;;;;6.40;4.22;;;;;;;20.78;26.67;101102.53;5078176;28;20036;-64
2022/01/14 09:11:41;;;;;;;11.60;4.38;;;;;;;20.77;26.81;101098.13;5078692;28;20040;-65
2022/01/14 09:14:07;;;;;;;7.10;4.47;;;;;;;20.79;26.94;101095.84;5078087;28;20044;-64
2022/01/14 09:16:33;;;;;;;6.00;4.50;;;;;;;20.78;27.16;101096.16;5077939;28;20048;-62
2022/01/14 09:18:59;;;;;;;6.25;4.40;;;;;;;20.82;27.20;101094.34;5078655;28;20040;-64
2022/01/14 09:21:24;;;;;;;6.47;4.72;;;;;;;20.96;27.06;101099.69;5079006;28;20089;-63
2022/01/14 09:24:03;;;;;;;6.15;4.70;;;;;;;21.34;26.77;101100.47;5075527;28;20158;-60
2022/01/14 09:26:31;;;;;;;6.07;4.80;;;;;;;22.10;26.23;101104.97;5074733;28;20185;-60
2022/01/14 09:28:57;;;;;;;13.38;5.63;;;;;;;22.92;24.97;101105.03;5072883;28;20044;-61
2022/01/14 09:31:22;;;;;;;10.57;5.20;;;;;;;23.48;24.75;101093.25;5075088;28;20074;-68
2022/01/14 09:33:48;;;;;;;12.63;8.05;;;;;;;23.25;24.85;101096.53;5076830;28;20051;-67
2022/01/14 09:36:13;;;;;;;13.15;7.95;;;;;;;22.96;25.04;101097.59;5073386;28;20042;-71
2022/01/14 09:38:39;;;;;;;8.48;5.90;;;;;;;22.71;25.39;101099.53;5076892;28;20055;-70
2022/01/14 09:41:06;;;;;;;9.35;5.68;;;;;;;22.49;25.82;101092.41;5081071;28;20475;-67
2022/01/14 09:43:36;;;;;;;8.07;4.80;;;;;;;22.33;26.24;101091.44;5074462;28;20076;-70
2022/01/14 09:46:05;;;;;;;8.10;5.13;;;;;;;22.17;26.33;101088.50;5085369;28;20080;-60
2022/01/14 09:48:31;;;;;;;6.93;5.10;;;;;;;22.06;26.66;101084.47;5073380;28;20116;-60
2022/01/14 09:50:57;;;;;;;7.03;4.88;;;;;;;21.93;26.58;101078.06;5073399;28;20102;-62
2022/01/14 09:53:25;;;;;;;8.43;4.90;;;;;;;21.86;26.75;101080.59;5078062;28;20098;-62
2022/01/14 09:55:51;;;;;;;7.50;4.78;;;;;;;21.80;26.94;101081.94;5083538;28;20523;-59
2022/01/14 09:58:17;;;;;;;6.60;4.65;;;;;;;21.74;27.18;101080.53;5083903;28;20129;-64
2022/01/14 10:00:43;;;;;;;6.63;4.57;;;;;;;21.69;27.17;101084.31;5080948;28;20424;-65
2022/01/14 10:03:25;;;;;;;8.48;5.00;;;;;;;21.64;27.66;101084.50;5081371;28;20071;-66
2022/01/14 10:05:55;;;;;;;7.10;4.63;;;;;;;21.61;27.45;101090.78;5066178;28;20047;-66
2022/01/14 10:08:25;;;;;;;9.32;5.45;;;;;;;21.58;27.39;101085.91;5081597;28;20397;-68
2022/01/14 10:10:58;;;;;;;7.97;5.05;;;;;;;21.54;27.66;101082.16;5080678;28;20048;-62
2022/01/14 10:13:34;;;;;;;7.65;5.38;;;;;;;21.52;27.57;101092.00;5077515;28;20036;-60
2022/01/14 10:16:04;;;;;;;7.25;4.93;;;;;;;21.51;27.73;101087.59;5077729;28;20059;-62
2022/01/14 10:18:30;;;;;;;6.70;4.65;;;;;;;21.54;27.61;101072.97;5075124;28;20180;-60
2022/01/14 10:21:02;;;;;;;8.50;5.07;;;;;;;22.22;27.14;101079.13;5079159;28;20058;-65
2022/01/14 10:23:48;;;;;;;7.15;5.15;;;;;;;23.16;26.11;101073.53;5076779;28;20044;-64
2022/01/14 10:26:15;;;;;;;8.45;5.60;;;;;;;23.51;25.55;101067.41;5084983;28;20055;-62
2022/01/14 10:28:44;;;;;;;7.63;4.55;;;;;;;23.31;25.87;101060.81;5077478;28;20047;-62
2022/01/14 10:31:10;;;;;;;7.68;4.50;;;;;;;23.04;26.01;101045.63;5083468;28;20066;-77
2022/01/14 10:33:36;;;;;;;7.88;4.97;;;;;;;22.83;26.18;101056.06;5067712;28;20420;-69
2022/01/14 10:36:02;;;;;;;9.68;5.85;;;;;;;22.62;26.55;101048.63;5083869;28;20500;-56
2022/01/14 10:38:38;;;;;;;8.95;5.30;;;;;;;22.45;26.73;101043.28;5084561;28;20708;-58
2022/01/14 10:41:08;;;;;;;8.80;5.40;;;;;;;22.34;27.24;101036.50;5073292;28;20121;-56
2022/01/14 10:43:35;;;;;;;7.70;4.57;;;;;;;22.24;27.41;101032.19;5071456;28;20041;-59
2022/01/14 10:46:09;;;;;;;7.03;4.80;;;;;;;22.10;27.50;101017.75;5055759;28;20950;-58
2022/01/14 10:48:38;;;;;;;7.50;4.70;;;;;;;22.05;27.31;101015.16;5074354;28;20072;-58
2022/01/14 10:51:10;;;;;;;6.25;4.47;;;;;;;21.97;26.99;101009.34;5079117;28;20132;-57
2022/01/14 10:53:40;;;;;;;9.60;4.80;;;;;;;21.90;26.58;101003.50;5074585;28;20070;-60
2022/01/14 10:56:10;;;;;;;9.15;4.85;;;;;;;21.85;26.83;100998.16;5079232;28;20070;-62
2022/01/14 10:58:42;;;;;;;13.75;5.10;;;;;;;21.79;26.91;100984.78;5078609;28;20122;-62
2022/01/14 11:01:11;;;;;;;6.55;4.40;;;;;;;21.75;27.20;100987.44;5075991;28;20044;-61
2022/01/14 11:03:38;;;;;;;7.68;4.82;;;;;;;21.72;27.40;100985.38;5082996;28;20624;-61
2022/01/14 11:06:15;;;;;;;5.97;4.78;;;;;;;21.67;27.24;100983.59;5078322;28;20568;-62
2022/01/14 11:08:41;;;;;;;7.32;5.07;;;;;;;21.65;27.41;100979.53;5080367;28;20090;-62
2022/01/14 11:11:06;;;;;;;5.40;4.15;;;;;;;21.60;27.54;100976.97;5078191;28;20043;-62
2022/01/14 11:13:33;;;;;;;6.80;4.72;;;;;;;21.54;27.29;100968.00;5069042;28;20423;-62
2022/01/14 11:15:59;;;;;;;6.53;4.15;;;;;;;21.56;27.24;100970.44;5077650;28;20048;-62
2022/01/14 11:18:25;;;;;;;6.85;4.38;;;;;;;21.54;27.20;100961.63;5074404;28;20049;-62
2022/01/14 11:23:34;;;;;;;8.15;5.07;;;;;;;21.47;27.34;100956.59;5083850;28;20100;-62
2022/01/14 11:26:03;;;;;;;7.80;4.43;;;;;;;21.46;27.24;100951.38;5073251;28;20052;-62
2022/01/14 11:28:31;;;;;;;7.75;4.95;;;;;;;21.45;27.12;100941.41;5077243;28;20066;-61
2022/01/14 11:30:58;;;;;;;5.80;4.57;;;;;;;21.42;27.37;100940.91;5074697;28;20128;-61
2022/01/14 11:33:41;;;;;;;4.93;4.05;;;;;;;21.41;27.03;100930.94;5077482;28;20052;-62
2022/01/14 11:36:08;;;;;;;5.30;4.07;;;;;;;21.40;27.22;100928.50;5073148;28;20550;-61
2022/01/14 11:38:37;;;;;;;6.43;4.55;;;;;;;21.40;26.95;100925.72;5072515;28;20496;-62
2022/01/14 11:41:03;;;;;;;7.75;5.28;;;;;;;21.38;26.91;100917.72;5072998;28;20090;-62
2022/01/14 11:43:54;;;;;;;5.32;4.13;;;;;;;21.37;27.13;100907.75;5077374;28;20047;-62
2022/01/14 11:46:45;;;;;;;5.90;4.28;;;;;;;21.37;26.89;100906.94;5088463;28;20058;-61
2022/01/14 11:49:30;;;;;;;5.80;4.30;;;;;;;21.38;27.22;100897.41;5063621;28;20111;-59
2022/01/14 11:51:59;;;;;;;6.60;4.25;;;;;;;21.35;27.46;100886.94;5082505;28;20106;-58